sensor_id;sensor_type;location;lat;lon;timestamp;P1;durP1;ratioP1;P2;durP2;ratioP2
70825;SDS011;58446;41.490;22.098;2023-03-01T00:01:09;51.80;;;26.17;;
70825;SDS011;58446;41.490;22.098;2023-03-01T00:03:39;51.65;;;25.52;;
70825;SDS011;58446;41.490;22.098;2023-03-01T00:06:05;44.37;;;22.83;;
70825;SDS011;58446;41.490;22.098;2023-03-01T00:08:31;40.90;;;20.00;;
70825;SDS011;58446;41.490;22.098;2023-03-01T00:11:05;37.28;;;19.83;;
70825;SDS011;58446;41.490;22.098;2023-03-01T00:13:34;49.97;;;20.83;;
70825;SDS011;58446;41.490;22.098;2023-03-01T00:16:01;50.05;;;22.00;;
70825;SDS011;58446;41.490;22.098;2023-03-01T00:18:31;39.03;;;20.73;;
70825;SDS011;58446;41.490;22.098;2023-03-01T00:20:57;42.60;;;22.90;;
70825;SDS011;58446;41.490;22.098;2023-03-01T00:23:23;36.30;;;19.00;;
70825;SDS011;58446;41.490;22.098;2023-03-01T00:25:49;40.50;;;18.90;;
70825;SDS011;58446;41.490;22.098;2023-03-01T00:28:16;40.67;;;19.88;;
70825;SDS011;58446;41.490;22.098;2023-03-01T00:30:41;32.30;;;18.77;;
70825;SDS011;58446;41.490;22.098;2023-03-01T00:33:07;35.78;;;19.35;;
70825;SDS011;58446;41.490;22.098;2023-03-01T00:35:33;34.47;;;18.13;;
70825;SDS011;58446;41.490;22.098;2023-03-01T00:37:59;33.63;;;17.70;;
70825;SDS011;58446;41.490;22.098;2023-03-01T00:40:25;32.55;;;16.38;;
70825;SDS011;58446;41.490;22.098;2023-03-01T00:42:52;31.55;;;17.13;;
70825;SDS011;58446;41.490;22.098;2023-03-01T00:45:18;31.43;;;16.67;;
70825;SDS011;58446;41.490;22.098;2023-03-01T00:47:44;31.03;;;15.90;;
70825;SDS011;58446;41.490;22.098;2023-03-01T00:50:10;31.80;;;17.47;;
70825;SDS011;58446;41.490;22.098;2023-03-01T00:52:37;26.67;;;17.73;;
70825;SDS011;58446;41.490;22.098;2023-03-01T00:55:03;31.05;;;17.20;;
70825;SDS011;58446;41.490;22.098;2023-03-01T00:57:29;29.23;;;15.68;;
70825;SDS011;58446;41.490;22.098;2023-03-01T00:59:55;26.67;;;15.57;;
70825;SDS011;58446;41.490;22.098;2023-03-01T01:02:20;27.75;;;14.93;;
70825;SDS011;58446;41.490;22.098;2023-03-01T01:04:46;31.10;;;16.60;;
70825;SDS011;58446;41.490;22.098;2023-03-01T01:07:12;23.40;;;13.75;;
70825;SDS011;58446;41.490;22.098;2023-03-01T01:09:39;24.75;;;14.13;;
70825;SDS011;58446;41.490;22.098;2023-03-01T01:12:04;25.30;;;13.80;;
70825;SDS011;58446;41.490;22.098;2023-03-01T01:14:30;28.35;;;14.52;;
70825;SDS011;58446;41.490;22.098;2023-03-01T01:16:56;28.17;;;14.30;;
70825;SDS011;58446;41.490;22.098;2023-03-01T01:19:22;27.43;;;13.50;;
70825;SDS011;58446;41.490;22.098;2023-03-01T01:21:49;22.90;;;13.32;;
70825;SDS011;58446;41.490;22.098;2023-03-01T01:24:15;26.90;;;13.95;;
70825;SDS011;58446;41.490;22.098;2023-03-01T01:26:41;25.88;;;13.38;;
70825;SDS011;58446;41.490;22.098;2023-03-01T01:29:07;24.85;;;13.27;;
70825;SDS011;58446;41.490;22.098;2023-03-01T01:31:34;27.73;;;13.67;;
70825;SDS011;58446;41.490;22.098;2023-03-01T01:34:02;25.00;;;13.43;;
70825;SDS011;58446;41.490;22.098;2023-03-01T01:36:29;29.38;;;14.25;;
70825;SDS011;58446;41.490;22.098;2023-03-01T01:38:55;23.70;;;13.38;;
70825;SDS011;58446;41.490;22.098;2023-03-01T01:41:21;26.03;;;14.53;;
70825;SDS011;58446;41.490;22.098;2023-03-01T01:43:48;25.35;;;13.80;;
70825;SDS011;58446;41.490;22.098;2023-03-01T01:46:35;30.63;;;14.85;;
70825;SDS011;58446;41.490;22.098;2023-03-01T01:49:09;30.40;;;14.60;;
70825;SDS011;58446;41.490;22.098;2023-03-01T01:51:41;28.50;;;14.57;;
70825;SDS011;58446;41.490;22.098;2023-03-01T01:54:10;23.90;;;12.82;;
70825;SDS011;58446;41.490;22.098;2023-03-01T01:56:40;37.28;;;20.48;;
70825;SDS011;58446;41.490;22.098;2023-03-01T01:59:08;33.20;;;18.15;;
70825;SDS011;58446;41.490;22.098;2023-03-01T02:01:34;33.55;;;19.58;;
70825;SDS011;58446;41.490;22.098;2023-03-01T02:04:00;32.03;;;17.13;;
70825;SDS011;58446;41.490;22.098;2023-03-01T02:06:27;32.30;;;15.50;;
70825;SDS011;58446;41.490;22.098;2023-03-01T02:09:00;32.50;;;16.77;;
70825;SDS011;58446;41.490;22.098;2023-03-01T02:11:33;32.83;;;19.93;;
70825;SDS011;58446;41.490;22.098;2023-03-01T02:13:59;32.63;;;16.80;;
70825;SDS011;58446;41.490;22.098;2023-03-01T02:16:25;39.30;;;18.52;;
70825;SDS011;58446;41.490;22.098;2023-03-01T02:18:51;32.55;;;18.70;;
70825;SDS011;58446;41.490;22.098;2023-03-01T02:23:46;31.27;;;16.70;;
70825;SDS011;58446;41.490;22.098;2023-03-01T02:28:45;33.03;;;17.05;;
70825;SDS011;58446;41.490;22.098;2023-03-01T02:31:13;30.60;;;17.23;;
70825;SDS011;58446;41.490;22.098;2023-03-01T02:33:59;29.87;;;17.87;;
70825;SDS011;58446;41.490;22.098;2023-03-01T02:36:31;31.85;;;16.33;;
70825;SDS011;58446;41.490;22.098;2023-03-01T02:39:10;27.65;;;16.23;;
70825;SDS011;58446;41.490;22.098;2023-03-01T02:41:43;29.25;;;16.02;;
70825;SDS011;58446;41.490;22.098;2023-03-01T02:44:12;29.40;;;16.13;;
70825;SDS011;58446;41.490;22.098;2023-03-01T02:46:48;30.87;;;16.83;;
70825;SDS011;58446;41.490;22.098;2023-03-01T02:49:18;28.83;;;16.60;;
70825;SDS011;58446;41.490;22.098;2023-03-01T02:51:54;31.80;;;16.17;;
70825;SDS011;58446;41.490;22.098;2023-03-01T02:57:26;30.87;;;15.43;;
70825;SDS011;58446;41.490;22.098;2023-03-01T02:59:57;29.85;;;16.00;;
70825;SDS011;58446;41.490;22.098;2023-03-01T03:02:27;26.17;;;15.18;;
70825;SDS011;58446;41.490;22.098;2023-03-01T03:05:19;24.17;;;14.88;;
70825;SDS011;58446;41.490;22.098;2023-03-01T03:07:47;29.70;;;15.10;;
70825;SDS011;58446;41.490;22.098;2023-03-01T03:10:19;28.73;;;16.17;;
70825;SDS011;58446;41.490;22.098;2023-03-01T03:12:50;29.33;;;15.52;;
70825;SDS011;58446;41.490;22.098;2023-03-01T03:15:18;29.77;;;15.85;;
70825;SDS011;58446;41.490;22.098;2023-03-01T03:17:44;30.20;;;15.60;;
70825;SDS011;58446;41.490;22.098;2023-03-01T03:20:11;26.73;;;16.63;;
70825;SDS011;58446;41.490;22.098;2023-03-01T03:22:44;29.10;;;16.40;;
70825;SDS011;58446;41.490;22.098;2023-03-01T03:25:13;25.55;;;16.27;;
70825;SDS011;58446;41.490;22.098;2023-03-01T03:27:40;29.20;;;16.10;;
70825;SDS011;58446;41.490;22.098;2023-03-01T03:30:08;30.25;;;16.77;;
70825;SDS011;58446;41.490;22.098;2023-03-01T03:32:37;34.22;;;15.80;;
70825;SDS011;58446;41.490;22.098;2023-03-01T03:35:05;28.73;;;15.77;;
70825;SDS011;58446;41.490;22.098;2023-03-01T03:37:38;31.00;;;16.45;;
70825;SDS011;58446;41.490;22.098;2023-03-01T03:40:22;31.75;;;16.02;;
70825;SDS011;58446;41.490;22.098;2023-03-01T03:42:48;30.90;;;15.90;;
70825;SDS011;58446;41.490;22.098;2023-03-01T03:45:14;26.90;;;15.10;;
70825;SDS011;58446;41.490;22.098;2023-03-01T03:47:43;26.42;;;14.95;;
70825;SDS011;58446;41.490;22.098;2023-03-01T03:50:10;29.95;;;15.00;;
70825;SDS011;58446;41.490;22.098;2023-03-01T03:52:36;28.60;;;15.93;;
70825;SDS011;58446;41.490;22.098;2023-03-01T03:55:02;33.80;;;16.88;;
70825;SDS011;58446;41.490;22.098;2023-03-01T03:57:29;31.17;;;16.15;;
70825;SDS011;58446;41.490;22.098;2023-03-01T03:59:54;27.27;;;15.80;;
70825;SDS011;58446;41.490;22.098;2023-03-01T04:02:20;27.27;;;15.87;;
70825;SDS011;58446;41.490;22.098;2023-03-01T04:04:49;28.57;;;15.20;;
70825;SDS011;58446;41.490;22.098;2023-03-01T04:07:15;27.00;;;15.23;;
70825;SDS011;58446;41.490;22.098;2023-03-01T04:09:43;28.98;;;14.63;;
70825;SDS011;58446;41.490;22.098;2023-03-01T04:12:09;25.93;;;15.13;;
70825;SDS011;58446;41.490;22.098;2023-03-01T04:14:35;29.83;;;15.48;;
70825;SDS011;58446;41.490;22.098;2023-03-01T04:17:01;30.43;;;16.23;;
70825;SDS011;58446;41.490;22.098;2023-03-01T04:19:30;30.83;;;16.77;;
70825;SDS011;58446;41.490;22.098;2023-03-01T04:22:04;33.83;;;17.25;;
70825;SDS011;58446;41.490;22.098;2023-03-01T04:24:37;34.15;;;17.30;;
70825;SDS011;58446;41.490;22.098;2023-03-01T04:27:02;38.03;;;20.63;;
70825;SDS011;58446;41.490;22.098;2023-03-01T04:29:28;32.57;;;17.07;;
70825;SDS011;58446;41.490;22.098;2023-03-01T04:31:54;49.40;;;25.33;;
70825;SDS011;58446;41.490;22.098;2023-03-01T04:34:20;44.80;;;23.60;;
70825;SDS011;58446;41.490;22.098;2023-03-01T04:36:45;35.40;;;21.33;;
70825;SDS011;58446;41.490;22.098;2023-03-01T04:39:11;36.90;;;18.87;;
70825;SDS011;58446;41.490;22.098;2023-03-01T04:41:39;39.03;;;21.20;;
70825;SDS011;58446;41.490;22.098;2023-03-01T04:44:05;32.05;;;17.90;;
70825;SDS011;58446;41.490;22.098;2023-03-01T04:46:32;34.87;;;18.40;;
70825;SDS011;58446;41.490;22.098;2023-03-01T04:48:57;29.20;;;17.20;;
70825;SDS011;58446;41.490;22.098;2023-03-01T04:51:23;35.00;;;17.27;;
70825;SDS011;58446;41.490;22.098;2023-03-01T04:53:49;31.83;;;17.50;;
70825;SDS011;58446;41.490;22.098;2023-03-01T04:56:15;31.55;;;17.45;;
70825;SDS011;58446;41.490;22.098;2023-03-01T04:58:43;31.77;;;18.05;;
70825;SDS011;58446;41.490;22.098;2023-03-01T05:01:14;38.50;;;19.93;;
70825;SDS011;58446;41.490;22.098;2023-03-01T05:03:45;52.33;;;27.08;;
70825;SDS011;58446;41.490;22.098;2023-03-01T05:06:13;44.92;;;23.52;;
70825;SDS011;58446;41.490;22.098;2023-03-01T05:08:39;43.10;;;22.50;;
70825;SDS011;58446;41.490;22.098;2023-03-01T05:11:06;34.72;;;18.30;;
70825;SDS011;58446;41.490;22.098;2023-03-01T05:13:34;40.00;;;19.90;;
70825;SDS011;58446;41.490;22.098;2023-03-01T05:16:01;37.20;;;19.90;;
70825;SDS011;58446;41.490;22.098;2023-03-01T05:18:28;36.42;;;20.33;;
70825;SDS011;58446;41.490;22.098;2023-03-01T05:20:55;37.55;;;20.00;;
70825;SDS011;58446;41.490;22.098;2023-03-01T05:23:28;40.10;;;20.65;;
70825;SDS011;58446;41.490;22.098;2023-03-01T05:25:53;42.03;;;21.73;;
70825;SDS011;58446;41.490;22.098;2023-03-01T05:28:22;36.97;;;19.92;;
70825;SDS011;58446;41.490;22.098;2023-03-01T05:30:48;42.33;;;21.00;;
70825;SDS011;58446;41.490;22.098;2023-03-01T05:33:16;43.45;;;21.45;;
70825;SDS011;58446;41.490;22.098;2023-03-01T05:35:43;47.92;;;25.27;;
70825;SDS011;58446;41.490;22.098;2023-03-01T05:38:11;44.30;;;22.58;;
70825;SDS011;58446;41.490;22.098;2023-03-01T05:40:41;43.85;;;23.10;;
70825;SDS011;58446;41.490;22.098;2023-03-01T05:43:08;41.73;;;21.10;;
70825;SDS011;58446;41.490;22.098;2023-03-01T05:45:36;46.35;;;22.30;;
70825;SDS011;58446;41.490;22.098;2023-03-01T05:48:03;42.05;;;22.25;;
70825;SDS011;58446;41.490;22.098;2023-03-01T05:50:32;39.47;;;21.85;;
70825;SDS011;58446;41.490;22.098;2023-03-01T05:55:33;36.43;;;19.67;;
70825;SDS011;58446;41.490;22.098;2023-03-01T05:58:00;40.40;;;20.60;;
70825;SDS011;58446;41.490;22.098;2023-03-01T06:00:28;42.97;;;21.52;;
70825;SDS011;58446;41.490;22.098;2023-03-01T06:02:55;40.30;;;20.92;;
70825;SDS011;58446;41.490;22.098;2023-03-01T06:05:22;42.15;;;22.20;;
70825;SDS011;58446;41.490;22.098;2023-03-01T06:07:48;38.70;;;21.13;;
70825;SDS011;58446;41.490;22.098;2023-03-01T06:10:15;42.75;;;21.98;;
70825;SDS011;58446;41.490;22.098;2023-03-01T06:12:41;45.83;;;22.50;;
70825;SDS011;58446;41.490;22.098;2023-03-01T06:15:09;43.53;;;22.13;;
70825;SDS011;58446;41.490;22.098;2023-03-01T06:17:36;47.15;;;25.77;;
70825;SDS011;58446;41.490;22.098;2023-03-01T06:20:04;51.37;;;27.80;;
70825;SDS011;58446;41.490;22.098;2023-03-01T06:22:31;49.88;;;26.45;;
70825;SDS011;58446;41.490;22.098;2023-03-01T06:24:57;52.92;;;29.75;;
70825;SDS011;58446;41.490;22.098;2023-03-01T06:27:22;59.87;;;30.43;;
70825;SDS011;58446;41.490;22.098;2023-03-01T06:29:48;54.33;;;28.37;;
70825;SDS011;58446;41.490;22.098;2023-03-01T06:32:14;47.63;;;24.33;;
70825;SDS011;58446;41.490;22.098;2023-03-01T06:34:39;52.23;;;25.90;;
70825;SDS011;58446;41.490;22.098;2023-03-01T06:37:05;85.40;;;43.58;;
70825;SDS011;58446;41.490;22.098;2023-03-01T06:39:32;56.05;;;29.05;;
70825;SDS011;58446;41.490;22.098;2023-03-01T06:41:58;62.87;;;33.30;;
70825;SDS011;58446;41.490;22.098;2023-03-01T06:44:24;49.60;;;27.25;;
70825;SDS011;58446;41.490;22.098;2023-03-01T06:46:50;48.00;;;25.70;;
70825;SDS011;58446;41.490;22.098;2023-03-01T06:49:16;41.60;;;23.37;;
70825;SDS011;58446;41.490;22.098;2023-03-01T06:51:43;46.15;;;24.30;;
70825;SDS011;58446;41.490;22.098;2023-03-01T06:54:09;45.83;;;26.50;;
70825;SDS011;58446;41.490;22.098;2023-03-01T06:56:35;45.90;;;26.23;;
70825;SDS011;58446;41.490;22.098;2023-03-01T06:59:01;51.67;;;27.27;;
70825;SDS011;58446;41.490;22.098;2023-03-01T07:01:28;49.05;;;29.35;;
70825;SDS011;58446;41.490;22.098;2023-03-01T07:03:54;47.28;;;27.55;;
70825;SDS011;58446;41.490;22.098;2023-03-01T07:06:20;56.50;;;30.27;;
70825;SDS011;58446;41.490;22.098;2023-03-01T07:08:46;56.90;;;32.05;;
70825;SDS011;58446;41.490;22.098;2023-03-01T07:11:12;53.55;;;30.58;;
70825;SDS011;58446;41.490;22.098;2023-03-01T07:13:37;57.97;;;30.53;;
70825;SDS011;58446;41.490;22.098;2023-03-01T07:16:03;55.38;;;32.17;;
70825;SDS011;58446;41.490;22.098;2023-03-01T07:18:29;48.85;;;29.08;;
70825;SDS011;58446;41.490;22.098;2023-03-01T07:20:55;49.80;;;28.97;;
70825;SDS011;58446;41.490;22.098;2023-03-01T07:23:21;40.03;;;23.58;;
70825;SDS011;58446;41.490;22.098;2023-03-01T07:25:52;50.50;;;27.40;;
70825;SDS011;58446;41.490;22.098;2023-03-01T07:28:19;49.53;;;25.02;;
70825;SDS011;58446;41.490;22.098;2023-03-01T07:30:45;47.40;;;28.85;;
70825;SDS011;58446;41.490;22.098;2023-03-01T07:33:11;57.37;;;31.03;;
70825;SDS011;58446;41.490;22.098;2023-03-01T07:35:36;63.15;;;35.67;;
70825;SDS011;58446;41.490;22.098;2023-03-01T07:38:02;65.30;;;35.43;;
70825;SDS011;58446;41.490;22.098;2023-03-01T07:40:28;74.20;;;40.08;;
70825;SDS011;58446;41.490;22.098;2023-03-01T07:42:58;71.87;;;38.27;;
70825;SDS011;58446;41.490;22.098;2023-03-01T07:45:25;78.22;;;42.05;;
70825;SDS011;58446;41.490;22.098;2023-03-01T07:47:51;58.58;;;32.97;;
70825;SDS011;58446;41.490;22.098;2023-03-01T07:50:18;62.90;;;34.13;;
70825;SDS011;58446;41.490;22.098;2023-03-01T07:52:47;55.47;;;31.90;;
70825;SDS011;58446;41.490;22.098;2023-03-01T07:55:15;55.90;;;31.50;;
70825;SDS011;58446;41.490;22.098;2023-03-01T07:57:41;50.58;;;28.73;;
70825;SDS011;58446;41.490;22.098;2023-03-01T08:00:09;50.60;;;26.35;;
70825;SDS011;58446;41.490;22.098;2023-03-01T08:02:36;55.37;;;30.20;;
70825;SDS011;58446;41.490;22.098;2023-03-01T08:05:02;57.75;;;31.08;;
70825;SDS011;58446;41.490;22.098;2023-03-01T08:07:28;68.25;;;36.00;;
70825;SDS011;58446;41.490;22.098;2023-03-01T08:09:53;50.33;;;29.47;;
70825;SDS011;58446;41.490;22.098;2023-03-01T08:12:22;46.97;;;27.25;;
70825;SDS011;58446;41.490;22.098;2023-03-01T08:14:48;55.50;;;29.10;;
70825;SDS011;58446;41.490;22.098;2023-03-01T08:17:14;55.80;;;32.93;;
70825;SDS011;58446;41.490;22.098;2023-03-01T08:19:39;52.10;;;30.25;;
70825;SDS011;58446;41.490;22.098;2023-03-01T08:22:05;63.60;;;36.10;;
70825;SDS011;58446;41.490;22.098;2023-03-01T08:24:31;53.13;;;30.17;;
70825;SDS011;58446;41.490;22.098;2023-03-01T08:26:56;46.83;;;27.70;;
70825;SDS011;58446;41.490;22.098;2023-03-01T08:29:22;46.17;;;25.58;;
70825;SDS011;58446;41.490;22.098;2023-03-01T08:31:50;43.43;;;24.73;;
70825;SDS011;58446;41.490;22.098;2023-03-01T08:34:16;40.08;;;22.42;;
70825;SDS011;58446;41.490;22.098;2023-03-01T08:36:43;49.35;;;24.25;;
70825;SDS011;58446;41.490;22.098;2023-03-01T08:39:13;49.45;;;25.83;;
70825;SDS011;58446;41.490;22.098;2023-03-01T08:41:41;42.08;;;23.30;;
70825;SDS011;58446;41.490;22.098;2023-03-01T08:44:09;42.30;;;23.97;;
70825;SDS011;58446;41.490;22.098;2023-03-01T08:46:37;45.08;;;26.10;;
70825;SDS011;58446;41.490;22.098;2023-03-01T08:49:04;46.50;;;26.52;;
70825;SDS011;58446;41.490;22.098;2023-03-01T08:51:31;38.83;;;21.60;;
70825;SDS011;58446;41.490;22.098;2023-03-01T08:54:02;39.40;;;23.98;;
70825;SDS011;58446;41.490;22.098;2023-03-01T08:56:28;38.90;;;22.23;;
70825;SDS011;58446;41.490;22.098;2023-03-01T08:58:54;40.03;;;22.95;;
70825;SDS011;58446;41.490;22.098;2023-03-01T09:01:20;50.33;;;27.33;;
70825;SDS011;58446;41.490;22.098;2023-03-01T09:03:46;38.05;;;22.25;;
70825;SDS011;58446;41.490;22.098;2023-03-01T09:06:12;41.13;;;24.03;;
70825;SDS011;58446;41.490;22.098;2023-03-01T09:08:42;48.42;;;24.20;;
70825;SDS011;58446;41.490;22.098;2023-03-01T09:11:11;38.15;;;21.50;;
70825;SDS011;58446;41.490;22.098;2023-03-01T09:13:38;34.00;;;19.15;;
70825;SDS011;58446;41.490;22.098;2023-03-01T09:16:05;46.38;;;23.50;;
70825;SDS011;58446;41.490;22.098;2023-03-01T09:18:33;40.53;;;21.43;;
70825;SDS011;58446;41.490;22.098;2023-03-01T09:21:06;93.53;;;45.00;;
70825;SDS011;58446;41.490;22.098;2023-03-01T09:23:38;42.40;;;22.13;;
70825;SDS011;58446;41.490;22.098;2023-03-01T09:26:10;53.08;;;24.42;;
70825;SDS011;58446;41.490;22.098;2023-03-01T09:28:44;44.63;;;22.00;;
70825;SDS011;58446;41.490;22.098;2023-03-01T09:31:12;75.37;;;37.90;;
70825;SDS011;58446;41.490;22.098;2023-03-01T09:33:38;60.22;;;31.60;;
70825;SDS011;58446;41.490;22.098;2023-03-01T09:36:06;65.20;;;35.70;;
70825;SDS011;58446;41.490;22.098;2023-03-01T09:38:35;48.78;;;27.27;;
70825;SDS011;58446;41.490;22.098;2023-03-01T09:41:02;41.07;;;22.40;;
70825;SDS011;58446;41.490;22.098;2023-03-01T09:43:47;58.30;;;34.67;;
70825;SDS011;58446;41.490;22.098;2023-03-01T09:46:19;28.33;;;15.13;;
70825;SDS011;58446;41.490;22.098;2023-03-01T09:51:36;38.03;;;22.73;;
70825;SDS011;58446;41.490;22.098;2023-03-01T09:54:03;30.77;;;17.43;;
70825;SDS011;58446;41.490;22.098;2023-03-01T09:56:36;30.10;;;17.23;;
70825;SDS011;58446;41.490;22.098;2023-03-01T09:59:25;28.00;;;16.13;;
70825;SDS011;58446;41.490;22.098;2023-03-01T10:02:03;27.40;;;14.00;;
70825;SDS011;58446;41.490;22.098;2023-03-01T10:09:54;43.28;;;22.30;;
70825;SDS011;58446;41.490;22.098;2023-03-01T10:12:23;55.08;;;26.80;;
70825;SDS011;58446;41.490;22.098;2023-03-01T10:17:30;46.57;;;24.13;;
70825;SDS011;58446;41.490;22.098;2023-03-01T10:20:18;40.83;;;20.52;;
70825;SDS011;58446;41.490;22.098;2023-03-01T10:22:47;41.20;;;19.85;;
70825;SDS011;58446;41.490;22.098;2023-03-01T10:25:20;36.72;;;16.63;;
70825;SDS011;58446;41.490;22.098;2023-03-01T10:27:59;48.03;;;22.60;;
70825;SDS011;58446;41.490;22.098;2023-03-01T10:30:46;37.13;;;17.88;;
70825;SDS011;58446;41.490;22.098;2023-03-01T10:33:20;31.85;;;15.15;;
70825;SDS011;58446;41.490;22.098;2023-03-01T10:35:51;34.50;;;15.63;;
70825;SDS011;58446;41.490;22.098;2023-03-01T10:38:18;32.00;;;16.25;;
70825;SDS011;58446;41.490;22.098;2023-03-01T10:40:55;36.67;;;18.95;;
70825;SDS011;58446;41.490;22.098;2023-03-01T10:43:24;79.88;;;38.22;;
70825;SDS011;58446;41.490;22.098;2023-03-01T10:45:51;45.53;;;25.73;;
70825;SDS011;58446;41.490;22.098;2023-03-01T10:48:24;38.67;;;20.00;;
70825;SDS011;58446;41.490;22.098;2023-03-01T10:51:15;38.63;;;17.73;;
70825;SDS011;58446;41.490;22.098;2023-03-01T10:53:43;35.75;;;17.42;;
70825;SDS011;58446;41.490;22.098;2023-03-01T10:56:15;33.20;;;15.45;;
70825;SDS011;58446;41.490;22.098;2023-03-01T10:58:56;33.17;;;15.73;;
70825;SDS011;58446;41.490;22.098;2023-03-01T11:01:30;27.42;;;13.60;;
70825;SDS011;58446;41.490;22.098;2023-03-01T11:06:33;27.48;;;12.90;;
70825;SDS011;58446;41.490;22.098;2023-03-01T11:09:13;28.85;;;13.45;;
70825;SDS011;58446;41.490;22.098;2023-03-01T11:11:51;26.87;;;13.17;;
70825;SDS011;58446;41.490;22.098;2023-03-01T11:14:21;24.60;;;12.40;;
70825;SDS011;58446;41.490;22.098;2023-03-01T11:16:59;27.33;;;12.82;;
70825;SDS011;58446;41.490;22.098;2023-03-01T11:19:44;28.65;;;12.98;;
70825;SDS011;58446;41.490;22.098;2023-03-01T11:22:32;25.45;;;12.63;;
70825;SDS011;58446;41.490;22.098;2023-03-01T11:24:59;29.73;;;12.50;;
70825;SDS011;58446;41.490;22.098;2023-03-01T11:30:02;32.63;;;15.82;;
70825;SDS011;58446;41.490;22.098;2023-03-01T11:32:36;30.45;;;14.55;;
70825;SDS011;58446;41.490;22.098;2023-03-01T11:40:29;26.63;;;12.98;;
70825;SDS011;58446;41.490;22.098;2023-03-01T11:43:04;29.95;;;15.43;;
70825;SDS011;58446;41.490;22.098;2023-03-01T11:45:36;29.55;;;13.75;;
70825;SDS011;58446;41.490;22.098;2023-03-01T11:48:31;25.00;;;12.80;;
70825;SDS011;58446;41.490;22.098;2023-03-01T11:51:09;23.10;;;12.03;;
70825;SDS011;58446;41.490;22.098;2023-03-01T11:56:35;28.08;;;14.25;;
70825;SDS011;58446;41.490;22.098;2023-03-01T11:59:57;25.63;;;13.00;;
70825;SDS011;58446;41.490;22.098;2023-03-01T12:11:19;27.45;;;14.02;;
70825;SDS011;58446;41.490;22.098;2023-03-01T12:13:58;25.95;;;12.73;;
70825;SDS011;58446;41.490;22.098;2023-03-01T12:17:03;23.13;;;12.45;;
70825;SDS011;58446;41.490;22.098;2023-03-01T12:22:49;29.98;;;15.15;;
70825;SDS011;58446;41.490;22.098;2023-03-01T12:25:39;29.20;;;13.57;;
70825;SDS011;58446;41.490;22.098;2023-03-01T12:34:12;22.00;;;12.70;;
70825;SDS011;58446;41.490;22.098;2023-03-01T12:37:13;22.13;;;13.23;;
70825;SDS011;58446;41.490;22.098;2023-03-01T12:40:03;24.48;;;13.00;;
70825;SDS011;58446;41.490;22.098;2023-03-01T12:43:10;41.78;;;20.48;;
70825;SDS011;58446;41.490;22.098;2023-03-01T12:51:45;25.17;;;13.40;;
70825;SDS011;58446;41.490;22.098;2023-03-01T12:54:28;32.22;;;16.17;;
70825;SDS011;58446;41.490;22.098;2023-03-01T12:57:18;36.53;;;20.20;;
70825;SDS011;58446;41.490;22.098;2023-03-01T13:00:06;28.63;;;17.08;;
70825;SDS011;58446;41.490;22.098;2023-03-01T13:11:01;36.42;;;18.25;;
70825;SDS011;58446;41.490;22.098;2023-03-01T13:13:30;29.23;;;16.25;;
70825;SDS011;58446;41.490;22.098;2023-03-01T13:15:56;47.73;;;26.03;;
70825;SDS011;58446;41.490;22.098;2023-03-01T13:21:01;42.03;;;22.13;;
70825;SDS011;58446;41.490;22.098;2023-03-01T13:23:29;45.03;;;24.67;;
70825;SDS011;58446;41.490;22.098;2023-03-01T13:30:57;46.03;;;25.38;;
70825;SDS011;58446;41.490;22.098;2023-03-01T13:35:52;44.87;;;26.77;;
70825;SDS011;58446;41.490;22.098;2023-03-01T13:44:18;54.25;;;31.60;;
70825;SDS011;58446;41.490;22.098;2023-03-01T13:46:51;41.10;;;25.45;;
70825;SDS011;58446;41.490;22.098;2023-03-01T13:49:22;44.10;;;25.13;;
70825;SDS011;58446;41.490;22.098;2023-03-01T13:51:51;43.85;;;24.02;;
70825;SDS011;58446;41.490;22.098;2023-03-01T13:54:26;33.65;;;19.33;;
70825;SDS011;58446;41.490;22.098;2023-03-01T13:56:57;34.10;;;19.80;;
70825;SDS011;58446;41.490;22.098;2023-03-01T13:59:24;57.20;;;28.03;;
70825;SDS011;58446;41.490;22.098;2023-03-01T14:01:59;48.10;;;26.88;;
70825;SDS011;58446;41.490;22.098;2023-03-01T14:04:28;46.03;;;24.98;;
70825;SDS011;58446;41.490;22.098;2023-03-01T14:07:21;53.13;;;28.90;;
70825;SDS011;58446;41.490;22.098;2023-03-01T14:10:07;45.28;;;23.70;;
70825;SDS011;58446;41.490;22.098;2023-03-01T14:12:39;45.10;;;25.07;;
70825;SDS011;58446;41.490;22.098;2023-03-01T14:15:27;63.83;;;31.27;;
70825;SDS011;58446;41.490;22.098;2023-03-01T14:17:59;35.97;;;23.02;;
70825;SDS011;58446;41.490;22.098;2023-03-01T14:20:40;45.03;;;23.80;;
70825;SDS011;58446;41.490;22.098;2023-03-01T14:23:15;38.22;;;21.02;;
70825;SDS011;58446;41.490;22.098;2023-03-01T14:25:54;53.77;;;30.60;;
70825;SDS011;58446;41.490;22.098;2023-03-01T14:28:32;46.88;;;26.42;;
70825;SDS011;58446;41.490;22.098;2023-03-01T14:30:59;47.75;;;26.98;;
70825;SDS011;58446;41.490;22.098;2023-03-01T14:33:29;53.90;;;31.67;;
70825;SDS011;58446;41.490;22.098;2023-03-01T14:36:08;67.28;;;32.40;;
70825;SDS011;58446;41.490;22.098;2023-03-01T14:41:10;41.95;;;24.65;;
70825;SDS011;58446;41.490;22.098;2023-03-01T14:43:44;46.72;;;27.35;;
70825;SDS011;58446;41.490;22.098;2023-03-01T14:46:26;53.72;;;28.23;;
70825;SDS011;58446;41.490;22.098;2023-03-01T14:49:01;53.58;;;27.15;;
70825;SDS011;58446;41.490;22.098;2023-03-01T14:51:35;67.47;;;38.93;;
70825;SDS011;58446;41.490;22.098;2023-03-01T14:54:26;52.97;;;29.88;;
70825;SDS011;58446;41.490;22.098;2023-03-01T14:57:00;60.65;;;33.50;;
70825;SDS011;58446;41.490;22.098;2023-03-01T14:59:27;49.30;;;28.73;;
70825;SDS011;58446;41.490;22.098;2023-03-01T15:01:53;57.03;;;30.92;;
70825;SDS011;58446;41.490;22.098;2023-03-01T15:04:22;52.80;;;28.33;;
70825;SDS011;58446;41.490;22.098;2023-03-01T15:06:52;55.03;;;25.80;;
70825;SDS011;58446;41.490;22.098;2023-03-01T15:09:20;44.50;;;24.10;;
70825;SDS011;58446;41.490;22.098;2023-03-01T15:11:47;54.92;;;29.00;;
70825;SDS011;58446;41.490;22.098;2023-03-01T15:17:19;67.83;;;32.77;;
70825;SDS011;58446;41.490;22.098;2023-03-01T15:19:51;51.50;;;27.90;;
70825;SDS011;58446;41.490;22.098;2023-03-01T15:22:17;46.72;;;28.27;;
70825;SDS011;58446;41.490;22.098;2023-03-01T15:24:46;52.60;;;30.30;;
70825;SDS011;58446;41.490;22.098;2023-03-01T15:27:17;64.68;;;33.53;;
70825;SDS011;58446;41.490;22.098;2023-03-01T15:29:48;79.27;;;37.27;;
70825;SDS011;58446;41.490;22.098;2023-03-01T15:32:27;82.05;;;38.63;;
70825;SDS011;58446;41.490;22.098;2023-03-01T15:34:55;65.82;;;33.63;;
70825;SDS011;58446;41.490;22.098;2023-03-01T15:37:43;49.45;;;27.05;;
70825;SDS011;58446;41.490;22.098;2023-03-01T15:42:46;21.97;;;11.93;;
70825;SDS011;58446;41.490;22.098;2023-03-01T15:47:49;38.35;;;20.27;;
70825;SDS011;58446;41.490;22.098;2023-03-01T15:50:22;36.20;;;20.20;;
70825;SDS011;58446;41.490;22.098;2023-03-01T15:52:50;33.00;;;17.87;;
70825;SDS011;58446;41.490;22.098;2023-03-01T15:55:21;32.72;;;17.15;;
70825;SDS011;58446;41.490;22.098;2023-03-01T16:00:27;28.27;;;15.50;;
70825;SDS011;58446;41.490;22.098;2023-03-01T16:02:53;28.30;;;15.52;;